Aviation Digital Data Service (ADDS)

Output produced by METARs form (2355 UTC 18 July 2018)
found at http://www.aviationweather.gov/adds/metars/
 
LHDC 182315Z 30006KT 9999 BKN030 20/18 Q1006 NOSIG
LHDC 182245Z 28003KT 9999 BKN025 20/18 Q1006 NOSIG
LHDC 182215Z 30005KT 9999 BKN025 20/18 Q1006 NOSIG
LHDC 182145Z 30006KT 9999 BKN026 20/18 Q1006 RESHRA NOSIG
LHDC 182115Z 34005KT 9999 BKN025 20/17 Q1006 RERA NOSIG
LHDC 182045Z 33007KT 9999 -RA SCT021 BKN031 20/18 Q1006 NOSIG
LHDC 182015Z 33007KT 9999 SCT033 BKN083 21/17 Q1006 NOSIG
LHDC 181945Z 33006KT 9999 FEW026 BKN083 21/17 Q1006 RESHRA NOSIG
LHDC 181915Z 29003KT 9999 -SHRA SCT026 BKN200 21/18 Q1006 NOSIG
LHDC 181845Z 24002KT 9999 SCT026TCU BKN200 21/18 Q1006 NOSIG
LHDC 181815Z 22004KT 9999 SCT033 BKN200 22/18 Q1006 NOSIG